createdAt,value
2023-05-14T00:00:44.598Z,25.45
2023-05-14T00:01:48.482Z,19.88
2023-05-14T00:02:52.305Z,19.92
2023-05-14T00:03:55.807Z,15.38
2023-05-14T00:04:59.391Z,17.92
2023-05-14T00:06:02.988Z,11.02
2023-05-14T00:07:06.226Z,11.90
2023-05-14T00:08:09.625Z,16.83
2023-05-14T00:09:13.648Z,16.88
2023-05-14T00:10:18.169Z,38.20
2023-05-14T00:11:21.909Z,16.63
2023-05-14T00:12:25.438Z,18.08
2023-05-14T00:13:28.713Z,30.20
2023-05-14T00:14:32.003Z,15.18
2023-05-14T00:15:35.520Z,11.50
2023-05-14T00:16:39.298Z,12.57
2023-05-14T00:17:43.504Z,21.90
2023-05-14T00:18:47.043Z,16.75
2023-05-14T00:19:50.678Z,12.07
2023-05-14T00:20:55.290Z,19.80
2023-05-14T00:21:58.755Z,23.98
2023-05-14T00:23:02.234Z,17.05
2023-05-14T00:24:05.720Z,17.48
2023-05-14T00:25:09.675Z,21.73
2023-05-14T00:26:13.252Z,20.27
2023-05-14T00:27:17.385Z,12.82
2023-05-14T00:28:20.764Z,16.23
2023-05-14T00:29:24.894Z,21.17
2023-05-14T00:30:28.189Z,23.90
2023-05-14T00:31:31.289Z,23.85
2023-05-14T00:32:34.616Z,18.80
2023-05-14T00:33:37.606Z,16.80
2023-05-14T00:34:41.355Z,19.35
2023-05-14T00:35:45.025Z,19.70
2023-05-14T00:36:48.578Z,16.58
2023-05-14T00:37:51.896Z,13.10
2023-05-14T00:38:55.124Z,12.77
2023-05-14T00:39:59.025Z,24.23
2023-05-14T00:41:02.735Z,16.65
2023-05-14T00:42:06.982Z,12.95
2023-05-14T00:43:10.426Z,21.30
2023-05-14T00:44:14.186Z,24.40
2023-05-14T00:45:17.937Z,21.52
2023-05-14T00:46:21.142Z,23.50
2023-05-14T00:47:24.242Z,15.13
2023-05-14T00:48:27.661Z,22.02
2023-05-14T00:49:31.556Z,17.60
2023-05-14T00:50:35.178Z,19.13
2023-05-14T00:51:38.591Z,27.95
2023-05-14T00:52:42.324Z,15.20
2023-05-14T00:53:46.757Z,16.63
2023-05-14T00:54:50.452Z,7.75
2023-05-14T00:55:54.115Z,13.77
2023-05-14T00:56:57.904Z,21.35
2023-05-14T00:58:01.394Z,23.08
2023-05-14T00:59:05.103Z,20.65
2023-05-14T01:00:09.829Z,23.02
2023-05-14T01:01:16.418Z,17.63
2023-05-14T01:02:19.770Z,20.75
2023-05-14T01:03:23.755Z,18.13
2023-05-14T01:04:27.709Z,16.52
2023-05-14T01:05:41.418Z,16.15
2023-05-14T01:06:53.292Z,28.25
2023-05-14T01:08:07.742Z,22.63
2023-05-14T01:09:51.342Z,25.33
2023-05-14T01:11:18.087Z,21.73
2023-05-14T01:12:41.641Z,25.73
2023-05-14T01:14:15.390Z,21.23
2023-05-14T01:15:22.901Z,24.40
2023-05-14T01:16:27.881Z,22.60
2023-05-14T01:17:33.257Z,19.52
2023-05-14T01:18:37.224Z,23.65
2023-05-14T01:19:41.735Z,23.20
2023-05-14T01:20:46.240Z,22.80
2023-05-14T01:21:49.717Z,18.35
2023-05-14T01:22:54.107Z,18.90
2023-05-14T01:23:57.606Z,20.40
2023-05-14T01:25:01.335Z,17.88
2023-05-14T01:26:05.468Z,13.80
2023-05-14T01:27:32.938Z,18.30
2023-05-14T01:28:36.942Z,17.52
2023-05-14T01:29:41.652Z,18.55
2023-05-14T01:30:58.515Z,25.27
2023-05-14T01:32:02.328Z,16.35
2023-05-14T01:33:12.739Z,13.38
2023-05-14T01:34:20.802Z,16.63
2023-05-14T01:35:27.949Z,17.63
2023-05-14T01:36:31.827Z,23.52
2023-05-14T01:37:35.073Z,13.35
2023-05-14T01:38:38.819Z,28.10
2023-05-14T01:39:42.485Z,17.00
2023-05-14T01:40:46.635Z,13.23
2023-05-14T01:41:50.603Z,17.23
2023-05-14T01:42:54.593Z,17.38
2023-05-14T01:43:57.857Z,18.60
2023-05-14T01:45:01.320Z,15.20
2023-05-14T01:46:05.844Z,16.08
2023-05-14T01:47:09.455Z,13.38
2023-05-14T01:48:12.510Z,20.95
2023-05-14T01:49:18.974Z,16.08
2023-05-14T01:50:22.459Z,17.58
2023-05-14T01:51:25.924Z,21.33
2023-05-14T01:52:28.885Z,22.33
2023-05-14T01:53:31.956Z,19.27
2023-05-14T01:54:35.226Z,15.93
2023-05-14T01:55:39.243Z,23.27
2023-05-14T01:56:42.747Z,24.70
2023-05-14T01:57:46.206Z,15.25
2023-05-14T01:58:49.819Z,23.92
2023-05-14T01:59:53.373Z,22.08
2023-05-14T02:00:57.011Z,18.35
2023-05-14T02:02:00.480Z,16.30
2023-05-14T02:03:04.747Z,30.05
2023-05-14T02:04:08.207Z,14.07
2023-05-14T02:05:12.921Z,20.80
2023-05-14T02:06:15.942Z,19.90
2023-05-14T02:07:19.002Z,19.77
2023-05-14T02:08:22.018Z,33.38
2023-05-14T02:09:25.735Z,16.08
2023-05-14T02:10:29.088Z,18.25
2023-05-14T02:11:31.929Z,19.65
2023-05-14T02:12:35.446Z,23.13
2023-05-14T02:13:38.846Z,23.98
2023-05-14T02:14:41.764Z,23.88
2023-05-14T02:15:45.028Z,25.00
2023-05-14T02:16:48.247Z,21.80
2023-05-14T02:17:51.947Z,22.50
2023-05-14T02:18:55.713Z,21.75
2023-05-14T02:19:59.331Z,20.15
2023-05-14T02:21:02.552Z,22.27
2023-05-14T02:22:06.257Z,28.40
2023-05-14T02:23:10.448Z,32.33
2023-05-14T02:24:14.022Z,31.60
2023-05-14T02:25:17.027Z,25.25
2023-05-14T02:26:20.805Z,29.17
2023-05-14T02:27:24.220Z,28.83
2023-05-14T02:28:27.946Z,25.70
2023-05-14T02:29:31.567Z,28.10
2023-05-14T02:30:34.593Z,37.97
2023-05-14T02:31:38.482Z,32.65
2023-05-14T02:32:42.522Z,36.25
2023-05-14T02:33:46.379Z,29.08
2023-05-14T02:34:49.795Z,21.55
2023-05-14T02:35:53.271Z,41.40
2023-05-14T02:36:56.756Z,32.25
2023-05-14T02:38:00.159Z,35.28
2023-05-14T02:39:05.378Z,38.45
2023-05-14T02:40:10.032Z,28.15
2023-05-14T02:41:12.872Z,27.52
2023-05-14T02:42:16.253Z,29.63
2023-05-14T02:43:19.885Z,29.85
2023-05-14T02:44:23.331Z,38.55
2023-05-14T02:45:26.651Z,49.83
2023-05-14T02:46:31.549Z,41.95
2023-05-14T02:47:37.561Z,31.70
2023-05-14T02:48:41.912Z,39.40
2023-05-14T02:49:45.715Z,35.50
2023-05-14T02:50:50.581Z,30.25
2023-05-14T02:51:55.316Z,35.50
2023-05-14T02:52:58.525Z,37.47
2023-05-14T02:54:01.768Z,29.42
2023-05-14T02:55:06.120Z,30.63
2023-05-14T02:56:10.069Z,32.95
2023-05-14T02:57:13.292Z,35.05
2023-05-14T02:58:16.896Z,28.60
2023-05-14T02:59:20.518Z,33.13
2023-05-14T03:00:24.627Z,39.95
2023-05-14T03:01:28.570Z,44.72
2023-05-14T03:02:32.369Z,42.85
2023-05-14T03:03:36.657Z,46.50
2023-05-14T03:04:40.285Z,45.67
2023-05-14T03:05:44.017Z,33.60
2023-05-14T03:06:47.676Z,38.85
2023-05-14T03:07:52.335Z,43.40
2023-05-14T03:08:55.908Z,38.00
2023-05-14T03:10:00.804Z,42.55
2023-05-14T03:11:04.419Z,41.38
2023-05-14T03:12:08.561Z,26.38
2023-05-14T03:13:12.060Z,37.85
2023-05-14T03:14:15.075Z,26.05
2023-05-14T03:15:18.268Z,32.75
2023-05-14T03:16:21.301Z,31.67
2023-05-14T03:17:25.123Z,32.05
2023-05-14T03:18:31.172Z,26.67
2023-05-14T03:19:34.610Z,26.05
2023-05-14T03:20:38.243Z,32.95
2023-05-14T03:21:42.800Z,21.00
2023-05-14T03:22:46.558Z,37.90
2023-05-14T03:23:50.383Z,15.93
2023-05-14T03:24:55.380Z,15.52
2023-05-14T03:25:59.206Z,20.63
2023-05-14T03:27:03.038Z,16.63
2023-05-14T03:28:06.810Z,25.98
2023-05-14T03:29:11.728Z,20.30
2023-05-14T03:30:16.909Z,20.13
2023-05-14T03:31:19.917Z,21.13
2023-05-14T03:32:23.386Z,25.02
2023-05-14T03:33:26.897Z,22.33
2023-05-14T03:34:30.261Z,27.63
2023-05-14T03:35:33.552Z,21.65
2023-05-14T03:36:40.371Z,25.50
2023-05-14T03:37:43.512Z,15.30
2023-05-14T03:38:46.932Z,22.48
2023-05-14T03:39:51.488Z,24.15
2023-05-14T03:40:54.491Z,20.45
2023-05-14T03:41:59.263Z,21.23
2023-05-14T03:43:02.727Z,22.70
2023-05-14T03:44:07.270Z,17.33
2023-05-14T03:45:11.003Z,24.55
2023-05-14T03:46:14.842Z,21.30
2023-05-14T03:47:18.201Z,19.55
2023-05-14T03:48:21.650Z,20.50
2023-05-14T03:49:26.154Z,18.73
2023-05-14T03:50:29.375Z,19.73
2023-05-14T03:51:32.426Z,21.30
2023-05-14T03:52:36.117Z,15.93
2023-05-14T03:53:39.324Z,19.83
2023-05-14T03:54:43.176Z,17.88
2023-05-14T03:55:46.851Z,12.88
2023-05-14T03:56:50.382Z,19.55
2023-05-14T03:57:53.694Z,18.30
2023-05-14T03:58:57.293Z,20.52
2023-05-14T04:00:00.702Z,26.02
2023-05-14T04:01:03.676Z,23.55
2023-05-14T04:02:07.683Z,20.90
2023-05-14T04:03:11.657Z,21.15
2023-05-14T04:04:15.158Z,15.10
2023-05-14T04:05:18.297Z,12.25
2023-05-14T04:06:22.188Z,17.63
2023-05-14T04:07:26.058Z,17.50
2023-05-14T04:08:29.537Z,19.23
2023-05-14T04:09:33.175Z,24.60
2023-05-14T04:10:36.926Z,12.68
2023-05-14T04:11:40.659Z,17.33
2023-05-14T04:12:43.929Z,19.08
2023-05-14T04:13:47.083Z,15.52
2023-05-14T04:14:51.098Z,19.98
2023-05-14T04:15:54.122Z,20.27
2023-05-14T04:16:58.995Z,21.48
2023-05-14T04:18:03.632Z,15.65
2023-05-14T04:19:06.930Z,19.27
2023-05-14T04:20:11.253Z,21.13
2023-05-14T04:21:14.727Z,19.42
2023-05-14T04:22:17.815Z,27.40
2023-05-14T04:23:21.149Z,25.60
2023-05-14T04:24:24.837Z,21.48
2023-05-14T04:25:28.429Z,28.65
2023-05-14T04:26:31.469Z,21.33
2023-05-14T04:27:35.327Z,18.70
2023-05-14T04:28:38.634Z,22.17
2023-05-14T04:29:41.965Z,21.60
2023-05-14T04:30:46.252Z,19.80
2023-05-14T04:31:50.672Z,25.60
2023-05-14T04:32:53.766Z,26.48
2023-05-14T04:33:57.199Z,26.00
2023-05-14T04:35:00.496Z,21.33
2023-05-14T04:36:03.539Z,25.73
2023-05-14T04:37:07.362Z,21.75
2023-05-14T04:38:12.290Z,21.70
2023-05-14T04:39:15.578Z,16.80
2023-05-14T04:40:19.861Z,19.08
2023-05-14T04:41:23.511Z,18.90
2023-05-14T04:42:26.963Z,16.40
2023-05-14T04:43:30.722Z,15.95
2023-05-14T04:44:35.076Z,18.42
2023-05-14T04:45:38.763Z,19.23
2023-05-14T04:46:42.465Z,13.90
2023-05-14T04:47:47.307Z,22.45
2023-05-14T04:48:51.329Z,17.00
2023-05-14T04:49:54.456Z,26.95
2023-05-14T04:50:57.415Z,19.50
2023-05-14T04:52:00.602Z,18.65
2023-05-14T04:53:04.301Z,18.13
2023-05-14T04:54:07.743Z,12.95
2023-05-14T04:55:11.341Z,14.77
2023-05-14T04:56:14.898Z,18.48
2023-05-14T04:57:18.084Z,12.98
2023-05-14T04:58:21.938Z,20.15
2023-05-14T04:59:25.764Z,17.75
2023-05-14T05:00:29.709Z,16.58
2023-05-14T05:01:33.023Z,12.85
2023-05-14T05:02:36.808Z,13.68
2023-05-14T05:03:40.147Z,12.65
2023-05-14T05:04:43.314Z,17.67
2023-05-14T05:05:46.982Z,20.48
2023-05-14T05:06:50.731Z,16.17
2023-05-14T05:07:54.349Z,10.18
2023-05-14T05:08:59.067Z,12.32
2023-05-14T05:10:04.431Z,18.90
2023-05-14T05:11:07.836Z,25.15
2023-05-14T05:12:11.045Z,27.73
2023-05-14T05:13:14.464Z,31.90
2023-05-14T05:14:18.327Z,20.75
2023-05-14T05:15:22.366Z,26.38
2023-05-14T05:16:26.834Z,25.45
2023-05-14T05:17:30.876Z,27.35
2023-05-14T05:18:34.174Z,22.73
2023-05-14T05:19:43.812Z,17.95
2023-05-14T05:20:47.882Z,18.60
2023-05-14T05:21:51.695Z,18.70
2023-05-14T05:22:54.862Z,16.08
2023-05-14T05:23:58.530Z,30.63
2023-05-14T05:25:02.107Z,21.73
2023-05-14T05:26:05.598Z,12.60
2023-05-14T05:27:08.648Z,20.20
2023-05-14T05:28:11.842Z,26.98
2023-05-14T05:29:15.220Z,21.58
2023-05-14T05:30:18.097Z,16.02
2023-05-14T05:31:21.877Z,18.13
2023-05-14T05:32:25.958Z,22.23
2023-05-14T05:33:29.188Z,21.83
2023-05-14T05:34:32.820Z,22.85
2023-05-14T05:35:35.802Z,26.25
2023-05-14T05:36:38.695Z,19.00
2023-05-14T05:37:43.059Z,14.40
2023-05-14T05:38:46.458Z,14.35
2023-05-14T05:39:49.984Z,18.85
2023-05-14T05:40:53.969Z,24.58
2023-05-14T05:41:56.893Z,18.48
2023-05-14T05:42:59.674Z,18.73
2023-05-14T05:44:03.370Z,24.77
2023-05-14T05:45:07.602Z,22.40
2023-05-14T05:46:11.096Z,16.67
2023-05-14T05:47:14.264Z,17.83
2023-05-14T05:48:17.550Z,22.35
2023-05-14T05:49:20.761Z,17.25
2023-05-14T05:50:25.402Z,23.65
2023-05-14T05:51:29.140Z,20.73
2023-05-14T05:52:32.559Z,19.42
2023-05-14T05:53:36.246Z,22.23
2023-05-14T05:54:40.326Z,28.95
2023-05-14T05:55:43.473Z,22.17
2023-05-14T05:56:47.018Z,23.30
2023-05-14T05:57:50.330Z,20.75
2023-05-14T05:58:53.737Z,19.02
2023-05-14T05:59:57.416Z,22.10
2023-05-14T06:01:01.227Z,16.80
2023-05-14T06:02:04.745Z,14.95
2023-05-14T06:03:08.331Z,16.30
2023-05-14T06:04:11.914Z,14.48
2023-05-14T06:05:15.605Z,22.20
2023-05-14T06:06:19.164Z,16.20
2023-05-14T06:07:22.721Z,21.67
2023-05-14T06:08:26.074Z,13.60
2023-05-14T06:09:29.580Z,16.08
2023-05-14T06:10:35.042Z,21.25
2023-05-14T06:11:38.557Z,11.65
2023-05-14T06:12:42.268Z,10.57
2023-05-14T06:13:45.754Z,21.30
2023-05-14T06:14:49.122Z,17.70
2023-05-14T06:15:52.697Z,13.15
2023-05-14T06:16:55.987Z,14.32
2023-05-14T06:17:59.441Z,20.60
2023-05-14T06:19:03.389Z,14.60
2023-05-14T06:20:08.494Z,13.02
2023-05-14T06:21:11.661Z,14.93
2023-05-14T06:22:15.306Z,12.23
2023-05-14T06:23:18.928Z,13.60
2023-05-14T06:24:22.210Z,18.98
2023-05-14T06:25:25.533Z,11.27
2023-05-14T06:26:28.518Z,17.75
2023-05-14T06:27:31.532Z,16.02
2023-05-14T06:28:35.033Z,9.93
2023-05-14T06:29:39.106Z,12.10
2023-05-14T06:30:42.478Z,13.60
2023-05-14T06:31:46.074Z,11.93
2023-05-14T06:32:49.203Z,10.98
2023-05-14T06:33:52.230Z,9.68
2023-05-14T06:34:55.811Z,13.13
2023-05-14T06:36:05.726Z,11.75
2023-05-14T06:37:10.487Z,16.17
2023-05-14T06:38:14.184Z,12.82
2023-05-14T06:39:17.504Z,14.70
2023-05-14T06:40:21.293Z,13.15
2023-05-14T06:41:25.225Z,13.00
2023-05-14T06:42:28.568Z,8.77
2023-05-14T06:43:31.876Z,19.70
2023-05-14T06:44:35.492Z,17.20
2023-05-14T06:45:38.507Z,9.85
2023-05-14T06:46:42.082Z,11.77
2023-05-14T06:47:45.488Z,13.93
2023-05-14T06:48:49.005Z,13.13
2023-05-14T06:49:52.815Z,17.60
2023-05-14T06:50:56.822Z,14.68
2023-05-14T06:52:00.245Z,12.50
2023-05-14T06:53:03.366Z,14.27
2023-05-14T06:54:06.590Z,11.25
2023-05-14T06:55:09.823Z,10.18
2023-05-14T06:56:14.086Z,12.48
2023-05-14T06:57:17.870Z,10.23
2023-05-14T06:58:21.431Z,12.50
2023-05-14T06:59:24.898Z,10.75
2023-05-14T07:00:28.957Z,13.32
2023-05-14T07:01:32.267Z,11.35
2023-05-14T07:02:36.415Z,15.00
2023-05-14T07:03:40.117Z,11.63
2023-05-14T07:04:43.423Z,18.30
2023-05-14T07:05:47.231Z,14.75
2023-05-14T07:06:50.820Z,9.27
2023-05-14T07:07:53.962Z,10.50
2023-05-14T07:08:57.433Z,10.70
2023-05-14T07:10:01.215Z,9.52
2023-05-14T07:11:04.762Z,14.93
2023-05-14T07:12:08.595Z,13.55
2023-05-14T07:13:11.953Z,12.57
2023-05-14T07:14:15.187Z,14.32
2023-05-14T07:15:18.688Z,17.38
2023-05-14T07:16:21.968Z,13.60
2023-05-14T07:17:25.037Z,12.15
2023-05-14T07:18:28.857Z,8.85
2023-05-14T07:19:32.556Z,11.20
2023-05-14T07:20:36.175Z,10.00
2023-05-14T07:21:39.445Z,14.25
2023-05-14T07:22:42.504Z,14.20
2023-05-14T07:23:45.676Z,11.80
2023-05-14T07:24:48.553Z,14.57
2023-05-14T07:25:52.188Z,16.20
2023-05-14T07:26:57.808Z,12.98
2023-05-14T07:28:01.296Z,14.27
2023-05-14T07:29:04.695Z,10.52
2023-05-14T07:30:09.322Z,15.05
2023-05-14T07:31:12.233Z,10.80
2023-05-14T07:32:15.940Z,11.57
2023-05-14T07:33:19.378Z,14.32
2023-05-14T07:34:23.205Z,9.30
2023-05-14T07:35:26.623Z,13.13
2023-05-14T07:36:29.985Z,13.85
2023-05-14T07:37:33.812Z,11.25
2023-05-14T07:38:37.237Z,15.85
2023-05-14T07:39:42.606Z,9.15
2023-05-14T07:40:46.207Z,11.13
2023-05-14T07:41:50.716Z,10.45
2023-05-14T07:42:53.949Z,12.27
2023-05-14T07:43:57.326Z,12.23
2023-05-14T07:45:00.746Z,14.48
2023-05-14T07:46:04.033Z,11.32
2023-05-14T07:47:09.572Z,11.90
2023-05-14T07:48:13.411Z,10.48
2023-05-14T07:49:16.441Z,15.77
2023-05-14T07:50:20.248Z,13.75
2023-05-14T07:51:23.717Z,15.90
2023-05-14T07:52:26.832Z,11.45
2023-05-14T07:53:30.226Z,7.95
2023-05-14T07:54:34.190Z,12.15
2023-05-14T07:55:37.741Z,10.27
2023-05-14T07:56:41.164Z,16.88
2023-05-14T07:57:44.654Z,10.85
2023-05-14T07:58:47.787Z,13.02
2023-05-14T07:59:51.050Z,9.00
2023-05-14T08:00:54.373Z,18.23
2023-05-14T08:01:58.542Z,14.80
2023-05-14T08:03:02.219Z,13.70
2023-05-14T08:04:05.868Z,15.73
2023-05-14T08:05:10.352Z,11.90
2023-05-14T08:06:13.961Z,11.63
2023-05-14T08:07:18.178Z,11.20
2023-05-14T08:08:21.484Z,10.25
2023-05-14T08:09:24.779Z,10.57
2023-05-14T08:10:28.242Z,14.15
2023-05-14T08:11:31.624Z,15.20
2023-05-14T08:12:34.894Z,12.57
2023-05-14T08:13:38.401Z,10.23
2023-05-14T08:14:42.212Z,17.13
2023-05-14T08:15:45.752Z,11.13
2023-05-14T08:16:49.217Z,15.60
2023-05-14T08:17:52.776Z,15.80
2023-05-14T08:18:56.595Z,15.27
2023-05-14T08:20:00.195Z,13.15
2023-05-14T08:21:04.149Z,14.13
2023-05-14T08:22:07.699Z,14.23
2023-05-14T08:23:11.271Z,12.35
2023-05-14T08:24:15.139Z,12.80
2023-05-14T08:25:18.641Z,14.70
2023-05-14T08:26:22.754Z,17.95
2023-05-14T08:27:27.225Z,11.73
2023-05-14T08:28:30.150Z,20.02
2023-05-14T08:29:33.981Z,14.75
2023-05-14T08:30:37.593Z,14.38
2023-05-14T08:31:41.930Z,11.18
2023-05-14T08:32:45.615Z,8.18
2023-05-14T08:33:48.800Z,10.50
2023-05-14T08:34:52.160Z,12.77
2023-05-14T08:35:55.434Z,14.23
2023-05-14T08:36:58.596Z,14.73
2023-05-14T08:38:01.649Z,15.68
2023-05-14T08:39:04.570Z,12.00
2023-05-14T08:40:09.152Z,14.23
2023-05-14T08:41:12.539Z,7.68
2023-05-14T08:42:15.464Z,8.48
2023-05-14T08:43:20.110Z,9.10
2023-05-14T08:44:33.810Z,8.77
2023-05-14T08:45:37.723Z,12.20
2023-05-14T08:46:40.962Z,14.77
2023-05-14T08:47:44.565Z,10.82
2023-05-14T08:48:49.081Z,6.85
2023-05-14T08:50:10.407Z,7.05
2023-05-14T08:51:14.001Z,9.82
2023-05-14T08:52:18.123Z,6.25
2023-05-14T08:53:21.393Z,8.20
2023-05-14T08:54:26.223Z,7.70
2023-05-14T08:55:29.765Z,8.70
2023-05-14T08:56:34.177Z,11.02
2023-05-14T08:57:38.268Z,9.10
2023-05-14T08:58:41.748Z,9.35
2023-05-14T08:59:45.438Z,10.20
2023-05-14T09:00:49.071Z,12.32
2023-05-14T09:01:55.604Z,5.05
2023-05-14T09:02:58.787Z,8.77
2023-05-14T09:04:07.853Z,7.20
2023-05-14T09:05:11.578Z,9.48
2023-05-14T09:06:14.869Z,8.35
2023-05-14T09:07:18.815Z,8.20
2023-05-14T09:08:22.090Z,8.18
2023-05-14T09:09:25.246Z,8.75
2023-05-14T09:10:28.354Z,10.88
2023-05-14T09:11:31.966Z,6.75
2023-05-14T09:12:35.670Z,6.03
2023-05-14T09:13:40.304Z,6.38
2023-05-14T09:14:44.707Z,10.27
2023-05-14T09:15:47.564Z,9.60
2023-05-14T09:16:51.583Z,5.63
2023-05-14T09:17:55.391Z,7.47
2023-05-14T09:18:58.613Z,4.55
2023-05-14T09:20:01.737Z,13.60
2023-05-14T09:21:05.304Z,6.13
2023-05-14T09:22:13.341Z,5.95
2023-05-14T09:23:16.783Z,5.90
2023-05-14T09:24:24.853Z,5.88
2023-05-14T09:25:29.241Z,10.20
2023-05-14T09:26:33.588Z,8.68
2023-05-14T09:27:37.072Z,7.68
2023-05-14T09:28:43.301Z,6.75
2023-05-14T09:29:46.876Z,8.50
2023-05-14T09:30:53.335Z,5.85
2023-05-14T09:31:57.621Z,7.82
2023-05-14T09:33:01.362Z,7.97
2023-05-14T09:34:04.935Z,10.23
2023-05-14T09:35:33.869Z,8.65
2023-05-14T09:36:37.754Z,10.73
2023-05-14T09:37:45.346Z,3.95
2023-05-14T09:38:48.999Z,6.90
2023-05-14T09:39:52.300Z,5.82
2023-05-14T09:40:55.929Z,6.30
2023-05-14T09:41:59.748Z,6.10
2023-05-14T09:43:03.617Z,8.70
2023-05-14T09:44:06.835Z,9.60
2023-05-14T09:45:11.546Z,11.82
2023-05-14T09:46:14.712Z,5.80
2023-05-14T09:47:17.654Z,8.40
2023-05-14T09:48:20.724Z,7.38
2023-05-14T09:49:24.262Z,10.90
2023-05-14T09:50:27.785Z,8.73
2023-05-14T09:51:32.890Z,4.88
2023-05-14T09:52:36.333Z,7.05
2023-05-14T09:53:40.104Z,6.13
2023-05-14T09:54:43.644Z,6.53
2023-05-14T09:55:47.151Z,8.38
2023-05-14T09:56:50.069Z,5.03
2023-05-14T09:57:53.122Z,4.88
2023-05-14T09:58:56.338Z,6.15
2023-05-14T09:59:59.790Z,5.13
2023-05-14T10:01:03.112Z,3.97
2023-05-14T10:02:06.117Z,6.22
2023-05-14T10:03:09.560Z,4.53
2023-05-14T10:04:12.558Z,8.50
2023-05-14T10:05:17.143Z,6.10
2023-05-14T10:06:21.690Z,6.60
2023-05-14T10:07:28.390Z,4.65
2023-05-14T10:08:34.696Z,5.20
2023-05-14T10:09:38.422Z,6.82
2023-05-14T10:10:42.009Z,9.10
2023-05-14T10:11:46.815Z,8.05
2023-05-14T10:13:00.039Z,3.97
2023-05-14T10:14:08.498Z,6.68
2023-05-14T10:15:18.883Z,3.17
2023-05-14T10:16:30.000Z,8.40
2023-05-14T10:17:34.419Z,3.67
2023-05-14T10:18:42.144Z,6.43
2023-05-14T10:19:51.544Z,4.60
2023-05-14T10:21:02.222Z,7.30
2023-05-14T10:22:07.733Z,5.95
2023-05-14T10:23:11.687Z,3.58
2023-05-14T10:24:14.680Z,7.47
2023-05-14T10:25:18.229Z,6.97
2023-05-14T10:26:23.964Z,6.97
2023-05-14T10:27:27.384Z,5.70
2023-05-14T10:28:31.490Z,8.23
2023-05-14T10:29:35.297Z,6.18
2023-05-14T10:30:46.445Z,8.52
2023-05-14T10:31:56.681Z,7.15
2023-05-14T10:33:10.430Z,7.43
2023-05-14T10:34:33.552Z,3.85
2023-05-14T10:35:58.178Z,5.13
2023-05-14T10:37:21.377Z,5.25
2023-05-14T10:38:39.774Z,8.75
2023-05-14T10:39:46.661Z,8.18
2023-05-14T10:40:51.580Z,9.70
2023-05-14T10:41:56.415Z,5.82
2023-05-14T10:42:59.781Z,7.15
2023-05-14T10:44:08.952Z,9.70
2023-05-14T10:45:14.044Z,5.20
2023-05-14T10:46:17.230Z,7.68
2023-05-14T10:47:20.515Z,6.00
2023-05-14T10:48:24.237Z,7.57
2023-05-14T10:49:42.457Z,10.50
2023-05-14T10:51:54.352Z,7.18
2023-05-14T10:52:58.022Z,6.40
2023-05-14T10:54:02.449Z,9.00
2023-05-14T10:55:10.472Z,5.30
2023-05-14T10:56:14.780Z,5.32
2023-05-14T10:57:19.238Z,6.32
2023-05-14T10:58:22.470Z,7.03
2023-05-14T10:59:29.002Z,7.90
2023-05-14T11:00:34.668Z,10.23
2023-05-14T11:01:37.923Z,8.00
2023-05-14T11:02:42.463Z,6.35
2023-05-14T11:03:47.227Z,5.50
2023-05-14T11:05:11.649Z,7.30
2023-05-14T11:06:15.797Z,8.00
2023-05-14T11:07:20.971Z,9.23
2023-05-14T11:08:26.494Z,5.50
2023-05-14T11:09:30.881Z,8.32
2023-05-14T11:10:34.134Z,6.75
2023-05-14T11:11:37.609Z,9.45
2023-05-14T11:12:42.591Z,4.47
2023-05-14T11:13:46.336Z,4.65
2023-05-14T11:14:49.889Z,4.70
2023-05-14T11:15:53.244Z,5.25
2023-05-14T11:16:56.661Z,5.47
2023-05-14T11:18:00.624Z,7.13
2023-05-14T11:19:04.897Z,6.13
2023-05-14T11:20:09.119Z,6.72
2023-05-14T11:21:12.684Z,4.78
2023-05-14T11:22:16.543Z,3.25
2023-05-14T11:23:20.120Z,5.57
2023-05-14T11:24:23.211Z,1.63
2023-05-14T11:25:26.975Z,3.35
2023-05-14T11:26:30.908Z,3.25
2023-05-14T11:27:38.825Z,6.30
2023-05-14T11:28:42.293Z,5.10
2023-05-14T11:29:47.128Z,6.82
2023-05-14T11:30:54.281Z,4.85
2023-05-14T11:31:57.934Z,3.15
2023-05-14T11:33:02.204Z,3.88
2023-05-14T11:34:07.682Z,2.85
2023-05-14T11:35:11.235Z,1.88
2023-05-14T11:36:15.147Z,3.60
2023-05-14T11:37:18.657Z,5.68
2023-05-14T11:38:22.168Z,4.07
2023-05-14T11:39:25.961Z,4.22
2023-05-14T11:40:29.355Z,5.00
2023-05-14T11:41:32.675Z,4.65
2023-05-14T11:42:36.022Z,7.32
2023-05-14T11:43:39.613Z,5.13
2023-05-14T11:44:45.372Z,3.90
2023-05-14T11:45:53.421Z,4.47
2023-05-14T11:46:57.756Z,10.57
2023-05-14T11:48:01.694Z,9.25
2023-05-14T11:49:07.833Z,5.22
2023-05-14T11:50:12.132Z,7.32
2023-05-14T11:51:15.765Z,8.25
2023-05-14T11:52:20.158Z,8.00
2023-05-14T11:53:27.712Z,5.30
2023-05-14T11:54:30.913Z,2.67
2023-05-14T11:55:37.268Z,2.85
2023-05-14T11:56:40.942Z,4.35
2023-05-14T11:57:44.482Z,9.23
2023-05-14T11:58:50.767Z,2.83
2023-05-14T12:00:00.162Z,2.80
2023-05-14T12:01:03.881Z,4.43
2023-05-14T12:02:09.279Z,4.40
2023-05-14T12:03:12.869Z,2.40
2023-05-14T12:04:16.060Z,4.65
2023-05-14T12:05:20.114Z,3.13
2023-05-14T12:06:23.437Z,1.65
2023-05-14T12:07:30.147Z,2.15
2023-05-14T12:08:33.286Z,2.67
2023-05-14T12:09:50.279Z,2.50
2023-05-14T12:10:56.527Z,3.70
2023-05-14T12:12:00.040Z,2.38
2023-05-14T12:13:08.184Z,3.20
2023-05-14T12:14:31.937Z,5.63
2023-05-14T12:15:35.600Z,2.22
2023-05-14T12:16:40.999Z,3.53
2023-05-14T12:17:44.390Z,4.28
2023-05-14T12:18:47.682Z,1.65
2023-05-14T12:19:52.696Z,4.53
2023-05-14T12:20:56.395Z,3.20
2023-05-14T12:22:01.627Z,4.25
2023-05-14T12:23:05.199Z,2.45
2023-05-14T12:24:18.241Z,2.92
2023-05-14T12:25:21.667Z,3.92
2023-05-14T12:26:25.238Z,3.45
2023-05-14T12:27:29.307Z,2.95
2023-05-14T12:28:33.473Z,2.08
2023-05-14T12:29:41.612Z,1.77
2023-05-14T12:30:44.720Z,4.35
2023-05-14T12:31:49.364Z,3.15
2023-05-14T12:32:54.588Z,2.03
2023-05-14T12:33:58.032Z,1.52
2023-05-14T12:35:04.462Z,2.75
2023-05-14T12:36:20.474Z,3.25
2023-05-14T12:37:25.384Z,2.05
2023-05-14T12:38:29.361Z,4.05
2023-05-14T12:39:34.249Z,3.65
2023-05-14T12:40:37.750Z,2.95
2023-05-14T12:41:41.542Z,3.78
2023-05-14T12:42:44.587Z,2.63
2023-05-14T12:43:48.509Z,4.47
2023-05-14T12:44:51.504Z,2.05
2023-05-14T12:45:54.406Z,3.25
2023-05-14T12:46:58.281Z,6.50
2023-05-14T12:48:01.681Z,1.10
2023-05-14T12:49:04.641Z,2.35
2023-05-14T12:50:08.388Z,3.28
2023-05-14T12:51:12.002Z,1.70
2023-05-14T12:53:21.627Z,1.92
2023-05-14T12:54:25.274Z,4.30
2023-05-14T12:55:28.510Z,1.02
2023-05-14T12:56:32.679Z,2.80
2023-05-14T12:57:36.328Z,1.23
2023-05-14T12:58:39.621Z,3.97
2023-05-14T12:59:42.726Z,3.80
2023-05-14T13:00:46.499Z,3.53
2023-05-14T13:01:49.673Z,5.00
2023-05-14T13:02:52.927Z,2.70
2023-05-14T13:03:57.039Z,4.28
2023-05-14T13:05:03.687Z,3.55
2023-05-14T13:06:07.095Z,2.25
2023-05-14T13:07:10.689Z,3.08
2023-05-14T13:08:18.634Z,5.47
2023-05-14T13:09:22.027Z,5.35
2023-05-14T13:10:25.691Z,2.58
2023-05-14T13:11:31.232Z,2.88
2023-05-14T13:12:34.567Z,2.33
2023-05-14T13:13:38.096Z,2.42
2023-05-14T13:14:41.473Z,2.17
2023-05-14T13:15:47.676Z,4.28
2023-05-14T13:16:51.036Z,3.55
2023-05-14T13:17:54.036Z,5.00
2023-05-14T13:18:57.155Z,4.88
2023-05-14T13:20:00.983Z,4.28
2023-05-14T13:21:06.998Z,3.63
2023-05-14T13:22:10.270Z,4.57
2023-05-14T13:23:14.476Z,5.40
2023-05-14T13:24:18.504Z,4.00
2023-05-14T13:25:22.335Z,3.70
2023-05-14T13:26:28.810Z,3.05
2023-05-14T13:27:32.027Z,5.07
2023-05-14T13:28:35.497Z,7.13
2023-05-14T13:29:39.269Z,3.85
2023-05-14T13:30:42.801Z,2.25
2023-05-14T13:31:45.819Z,7.55
2023-05-14T13:32:49.408Z,3.13
2023-05-14T13:33:52.975Z,2.92
2023-05-14T13:34:56.733Z,5.35
2023-05-14T13:36:00.453Z,2.95
2023-05-14T13:37:04.389Z,3.97
2023-05-14T13:38:08.324Z,6.00
2023-05-14T13:39:15.208Z,4.43
2023-05-14T13:40:18.776Z,5.63
2023-05-14T13:41:22.532Z,8.10
2023-05-14T13:42:26.191Z,4.93
2023-05-14T13:43:32.382Z,2.38
2023-05-14T13:44:36.604Z,3.90
2023-05-14T13:45:40.233Z,4.95
2023-05-14T13:46:44.287Z,5.25
2023-05-14T13:47:48.785Z,5.47
2023-05-14T13:48:53.287Z,4.70
2023-05-14T13:49:57.548Z,10.65
2023-05-14T13:51:01.400Z,5.68
2023-05-14T13:52:04.960Z,3.95
2023-05-14T13:53:07.755Z,6.55
2023-05-14T13:54:11.263Z,3.95
2023-05-14T13:55:15.108Z,6.38
2023-05-14T13:56:18.648Z,6.10
2023-05-14T13:57:22.832Z,10.70
2023-05-14T13:58:26.309Z,3.88
2023-05-14T13:59:29.608Z,5.18
2023-05-14T14:00:32.733Z,6.38
2023-05-14T14:01:36.508Z,5.15
2023-05-14T14:02:40.338Z,5.35
2023-05-14T14:03:43.548Z,3.75